createdAt,value
2023-02-01T00:01:58.609Z,98081.84
2023-02-01T00:04:24.894Z,98077.53
2023-02-01T00:06:51.180Z,98076.75
2023-02-01T00:09:17.474Z,98082.19
2023-02-01T00:11:43.756Z,98075.94
2023-02-01T00:14:10.054Z,98077.84
2023-02-01T00:16:36.319Z,98077.03
2023-02-01T00:19:02.583Z,98079.63
2023-02-01T00:21:28.849Z,98082.03
2023-02-01T00:23:55.136Z,98081.53
2023-02-01T00:26:21.434Z,98090.50
2023-02-01T00:28:47.747Z,98086.16
2023-02-01T00:31:14.122Z,98088.44
2023-02-01T00:33:40.427Z,98086.50
2023-02-01T00:36:06.700Z,98082.19
2023-02-01T00:38:32.971Z,98093.06
2023-02-01T00:40:59.274Z,98091.47
2023-02-01T00:43:25.553Z,98096.41
2023-02-01T00:45:51.859Z,98093.69
2023-02-01T00:48:18.114Z,98092.09
2023-02-01T00:50:44.410Z,98094.03
2023-02-01T00:53:10.715Z,98091.63
2023-02-01T00:55:37.017Z,98089.69
2023-02-01T00:58:03.329Z,98078.34
2023-02-01T01:00:29.717Z,98079.47
2023-02-01T01:02:56.054Z,98082.50
2023-02-01T01:05:22.321Z,98085.22
2023-02-01T01:07:48.603Z,98084.38
2023-02-01T01:10:14.884Z,98078.47
2023-02-01T01:12:41.147Z,98077.69
2023-02-01T01:15:07.416Z,98071.44
2023-02-01T01:17:33.731Z,98067.13
2023-02-01T01:20:00.168Z,98078.34
2023-02-01T01:22:26.481Z,98078.34
2023-02-01T01:24:52.769Z,98075.13
2023-02-01T01:27:19.042Z,98078.16
2023-02-01T01:29:45.321Z,98068.88
2023-02-01T01:32:11.601Z,98057.53
2023-02-01T01:34:37.864Z,98057.53
2023-02-01T01:37:04.130Z,98068.41
2023-02-01T01:39:30.421Z,98080.41
2023-02-01T01:41:56.694Z,98081.53
2023-02-01T01:44:22.977Z,98076.06
2023-02-01T01:46:49.378Z,98086.94
2023-02-01T01:49:15.711Z,98080.72
2023-02-01T01:51:41.991Z,98075.63
2023-02-01T01:54:08.258Z,98070.19
2023-02-01T01:56:34.532Z,98066.66
2023-02-01T01:59:00.799Z,98065.06
2023-02-01T02:01:27.074Z,98063.13
2023-02-01T02:03:53.450Z,98056.91
2023-02-01T02:06:19.712Z,98058.81
2023-02-01T02:08:45.982Z,98053.69
2023-02-01T02:11:12.256Z,98046.66
2023-02-01T02:13:38.584Z,98053.22
2023-02-01T02:16:04.872Z,98044.75
2023-02-01T02:18:31.167Z,98050.50
2023-02-01T02:20:57.485Z,98042.34
2023-02-01T02:23:23.792Z,98048.91
2023-02-01T02:25:50.076Z,98038.03
2023-02-01T02:28:16.340Z,98031.31
2023-02-01T02:30:42.659Z,98025.09
2023-02-01T02:33:08.979Z,98027.00
2023-02-01T02:35:35.286Z,98028.59
2023-02-01T02:38:01.563Z,98028.59
2023-02-01T02:40:27.849Z,98033.56
2023-02-01T02:42:54.129Z,98030.03
2023-02-01T02:45:20.405Z,98031.94
2023-02-01T02:47:46.689Z,98033.88
2023-02-01T02:50:12.989Z,98041.25
2023-02-01T02:52:39.269Z,98046.19
2023-02-01T02:55:05.547Z,98043.47
2023-02-01T02:57:31.815Z,98044.56
2023-02-01T02:59:58.100Z,98046.50
2023-02-01T03:02:24.432Z,98044.13
2023-02-01T03:04:50.711Z,98049.53
2023-02-01T03:07:17.008Z,98043.31
2023-02-01T03:09:43.321Z,98045.22
2023-02-01T03:12:09.627Z,98045.53
2023-02-01T03:14:35.926Z,98046.66
2023-02-01T03:17:02.191Z,98051.31
2023-02-01T03:19:28.475Z,98045.38
2023-02-01T03:24:19.955Z,98047.63
2023-02-01T03:26:46.266Z,98046.34
2023-02-01T03:29:12.582Z,98057.53
2023-02-01T03:31:38.896Z,98051.59
2023-02-01T03:34:05.261Z,98054.16
2023-02-01T03:36:31.551Z,98052.56
2023-02-01T03:38:57.823Z,98049.03
2023-02-01T03:41:24.108Z,98049.38
2023-02-01T03:43:50.411Z,98041.22
2023-02-01T03:46:16.705Z,98035.00
2023-02-01T03:48:42.966Z,98038.81
2023-02-01T03:51:09.221Z,98042.34
2023-02-01T03:53:35.516Z,98045.06
2023-02-01T03:56:01.783Z,98049.69
2023-02-01T03:58:28.058Z,98050.78
2023-02-01T04:00:54.393Z,98057.34
2023-02-01T04:03:20.687Z,98055.75
2023-02-01T04:05:46.959Z,98053.03
2023-02-01T04:08:13.292Z,98057.69
2023-02-01T04:10:39.559Z,98068.53
2023-02-01T04:13:05.932Z,98056.06
2023-02-01T04:15:32.217Z,98059.91
2023-02-01T04:17:58.491Z,98059.91
2023-02-01T04:20:25.168Z,98066.13
2023-02-01T04:22:51.633Z,98066.47
2023-02-01T04:25:17.904Z,98069.50
2023-02-01T04:27:44.204Z,98074.13
2023-02-01T04:30:10.481Z,98074.25
2023-02-01T04:32:36.745Z,98081.94
2023-02-01T04:35:03.026Z,98090.56
2023-02-01T04:37:29.283Z,98085.59
2023-02-01T04:39:55.549Z,98081.13
2023-02-01T04:42:21.790Z,98088.44
2023-02-01T04:44:48.048Z,98086.16
2023-02-01T04:47:14.301Z,98085.81
2023-02-01T04:49:40.557Z,98092.53
2023-02-01T04:52:06.799Z,98099.06
2023-02-01T04:54:33.065Z,98096.00
2023-02-01T04:56:59.317Z,98087.38
2023-02-01T04:59:25.570Z,98085.94
2023-02-01T05:01:51.814Z,98092.16
2023-02-01T05:04:18.085Z,98096.97
2023-02-01T05:06:44.368Z,98093.63
2023-02-01T05:09:10.636Z,98099.53
2023-02-01T05:11:36.889Z,98098.44
2023-02-01T05:14:03.145Z,98098.13
2023-02-01T05:16:29.453Z,98097.00
2023-02-01T05:18:55.740Z,98094.09
2023-02-01T05:21:22.014Z,98098.16
2023-02-01T05:23:48.275Z,98104.72
2023-02-01T05:26:14.584Z,98111.78
2023-02-01T05:28:40.853Z,98116.41
2023-02-01T05:31:07.201Z,98127.38
2023-02-01T05:33:33.542Z,98128.63
2023-02-01T05:35:59.785Z,98129.56
2023-02-01T05:38:26.035Z,98134.53
2023-02-01T05:40:52.273Z,98137.06
2023-02-01T05:43:18.529Z,98141.41
2023-02-01T05:45:44.777Z,98145.22
2023-02-01T05:48:11.049Z,98156.06
2023-02-01T05:50:37.295Z,98147.59
2023-02-01T10:10:05.483Z,98337.91
2023-02-01T10:12:31.752Z,98329.94
2023-02-01T10:14:58.015Z,98339.66
2023-02-01T10:17:24.285Z,98331.41
2023-02-01T10:19:50.562Z,98328.97
2023-02-01T10:22:16.830Z,98326.66
2023-02-01T10:24:43.100Z,98325.06
2023-02-01T10:27:09.359Z,98326.06
2023-02-01T10:29:35.714Z,98316.63
2023-02-01T10:32:02.018Z,98324.81
2023-02-01T10:34:28.364Z,98330.13
2023-02-01T10:36:54.624Z,98315.84
2023-02-01T10:39:20.903Z,98310.06
2023-02-01T10:41:47.180Z,98320.28
2023-02-01T10:44:13.444Z,98308.09
2023-02-01T10:46:42.343Z,98300.56
2023-02-01T10:49:08.668Z,98295.88
2023-02-01T10:51:34.944Z,98301.66
2023-02-01T10:54:01.212Z,98289.09
2023-02-01T10:56:27.481Z,98293.59
2023-02-01T10:58:53.743Z,98279.84
2023-02-01T11:01:20.028Z,98285.78
2023-02-01T11:03:46.335Z,98272.50
2023-02-01T11:06:12.600Z,98266.25
2023-02-01T11:08:38.914Z,98259.56
2023-02-01T11:11:05.180Z,98260.38
2023-02-01T11:13:31.465Z,98257.41
2023-02-01T11:15:57.760Z,98263.63
2023-02-01T11:18:24.012Z,98262.53
2023-02-01T11:20:50.322Z,98268.91
2023-02-01T11:23:16.628Z,98260.25
2023-02-01T11:25:43.074Z,98247.63
2023-02-01T11:28:09.354Z,98242.03
2023-02-01T11:30:35.789Z,98236.44
2023-02-01T11:33:02.082Z,98239.16
2023-02-01T11:35:28.343Z,98223.13
2023-02-01T11:37:54.645Z,98222.16
2023-02-01T11:40:21.078Z,98227.47
2023-02-01T11:42:47.419Z,98221.38
2023-02-01T11:45:13.667Z,98214.50
2023-02-01T11:47:39.932Z,98212.72
2023-02-01T11:50:06.176Z,98209.50
2023-02-01T11:52:32.477Z,98220.22
2023-02-01T11:54:58.746Z,98218.13
2023-02-01T11:57:25.072Z,98211.72
2023-02-01T11:59:56.860Z,98208.31
2023-02-01T12:02:23.451Z,98196.78
2023-02-01T12:04:49.772Z,98193.72
2023-02-01T12:07:16.036Z,98191.16
2023-02-01T12:09:42.313Z,98197.41
2023-02-01T12:12:08.563Z,98194.00
2023-02-01T12:14:34.843Z,98207.31
2023-02-01T12:17:01.110Z,98204.59
2023-02-01T12:19:27.391Z,98199.94
2023-02-01T12:21:53.649Z,98195.31
2023-02-01T12:24:19.933Z,98192.59
2023-02-01T12:26:46.227Z,98189.06
2023-02-01T12:29:12.523Z,98193.69
2023-02-01T12:31:38.808Z,98194.16
2023-02-01T12:34:05.101Z,98187.59
2023-02-01T12:36:31.457Z,98184.56
2023-02-01T12:38:57.759Z,98179.91
2023-02-01T12:41:24.013Z,98180.34
2023-02-01T12:43:50.279Z,98171.06
2023-02-01T12:46:16.605Z,98176.97
2023-02-01T12:48:43.737Z,98163.03
2023-02-01T12:51:10.287Z,98156.91
2023-02-01T12:53:36.536Z,98162.53
2023-02-01T12:56:02.799Z,98162.97
2023-02-01T12:58:29.055Z,98158.81
2023-02-01T13:00:55.375Z,98158.19
2023-02-01T13:03:21.646Z,98151.25
2023-02-01T13:05:47.955Z,98147.91
2023-02-01T13:08:14.216Z,98149.16
2023-02-01T13:10:40.481Z,98155.88
2023-02-01T13:13:06.803Z,98159.88
2023-02-01T13:15:33.054Z,98154.88
2023-02-01T13:17:59.318Z,98146.06
2023-02-01T13:20:26.110Z,98141.06
2023-02-01T13:22:52.524Z,98131.41
2023-02-01T13:25:18.790Z,98129.97
2023-02-01T13:27:45.061Z,98120.66
2023-02-01T13:30:11.453Z,98118.38
2023-02-01T13:33:50.227Z,98106.03
2023-02-01T13:35:24.365Z,98093.66
2023-02-01T13:37:50.901Z,98094.13
2023-02-01T13:40:17.179Z,98097.31
2023-02-01T13:42:43.473Z,98094.72
2023-02-01T13:45:09.753Z,98094.38
2023-02-01T13:47:36.044Z,98083.59
2023-02-01T13:50:02.310Z,98089.53
2023-02-01T13:52:28.563Z,98091.59
2023-02-01T13:54:54.832Z,98089.78
2023-02-01T13:57:21.083Z,98098.41
2023-02-01T13:59:47.373Z,98104.59
2023-02-01T14:02:13.629Z,98100.28
2023-02-01T14:04:39.947Z,98100.28
2023-02-01T14:07:06.222Z,98104.16
2023-02-01T14:09:32.510Z,98110.41
2023-02-01T14:11:59.028Z,98089.81
2023-02-01T14:14:25.340Z,98093.84
2023-02-01T14:16:51.607Z,98094.31
2023-02-01T14:19:17.846Z,98102.97
2023-02-01T14:21:44.157Z,98106.94
2023-02-01T14:24:10.428Z,98097.63
2023-02-01T14:26:36.732Z,98093.44
2023-02-01T14:29:03.045Z,98095.03
2023-02-01T14:31:29.467Z,98094.72
2023-02-01T14:33:55.799Z,98094.81
2023-02-01T14:36:22.045Z,98081.63
2023-02-01T14:38:48.340Z,98082.91
2023-02-01T14:41:14.717Z,98065.38
2023-02-01T14:43:41.007Z,98079.50
2023-02-01T14:46:07.323Z,98077.56
2023-02-01T14:48:34.038Z,98081.53
2023-02-01T14:51:00.332Z,98095.97
2023-02-01T14:53:26.611Z,98096.78
2023-02-01T14:55:52.868Z,98097.59
2023-02-01T14:58:19.170Z,98096.47
2023-02-01T15:00:45.450Z,98089.06
2023-02-01T15:03:11.729Z,98094.53
2023-02-01T15:05:38.022Z,98091.81
2023-02-01T15:08:04.295Z,98094.53
2023-02-01T15:10:30.561Z,98092.94
2023-02-01T15:12:56.848Z,98097.59
2023-02-01T15:15:23.431Z,98096.47
2023-02-01T15:17:49.874Z,98092.13
2023-02-01T15:20:16.163Z,98102.25
2023-02-01T15:22:43.466Z,98112.38
2023-02-01T15:25:09.707Z,98108.38
2023-02-01T15:27:35.966Z,98115.41
2023-02-01T15:30:02.223Z,98122.03
2023-02-01T15:32:28.491Z,98123.97
2023-02-01T15:34:54.734Z,98122.03
2023-02-01T15:37:21.069Z,98117.38
2023-02-01T15:39:47.345Z,98105.97
2023-02-01T15:42:13.613Z,98114.19
2023-02-01T15:44:39.867Z,98120.75
2023-02-01T15:47:06.135Z,98137.50
2023-02-01T15:49:32.425Z,98145.19
2023-02-01T15:51:58.687Z,98147.94
2023-02-01T15:54:24.971Z,98142.78
2023-02-01T15:56:51.305Z,98147.81
2023-02-01T15:59:17.569Z,98146.22
2023-02-01T16:01:43.892Z,98153.94
2023-02-01T16:04:10.208Z,98164.38
2023-02-01T16:06:36.473Z,98154.94
2023-02-01T16:09:02.851Z,98161.06
2023-02-01T16:11:29.184Z,98170.41
2023-02-01T16:13:55.466Z,98174.25
2023-02-01T16:16:21.774Z,98171.00
2023-02-01T16:18:48.066Z,98168.63
2023-02-01T16:21:14.331Z,98176.34
2023-02-01T16:23:40.604Z,98178.25
2023-02-01T16:26:06.892Z,98189.06
2023-02-01T16:28:33.179Z,98180.06
2023-02-01T16:30:59.444Z,98181.53
2023-02-01T16:33:25.704Z,98180.72
2023-02-01T16:35:51.951Z,98178.31
2023-02-01T16:38:18.213Z,98184.59
2023-02-01T16:40:44.512Z,98183.78
2023-02-01T16:43:10.772Z,98195.06
2023-02-01T16:45:37.084Z,98200.16
2023-02-01T16:48:03.478Z,98204.03
2023-02-01T16:50:29.736Z,98206.75
2023-02-01T16:52:56.015Z,98205.97
2023-02-01T16:55:22.562Z,98203.25
2023-02-01T16:57:49.169Z,98203.25
2023-02-01T17:00:23.994Z,98208.69
2023-02-01T17:02:51.486Z,98207.88
2023-02-01T17:05:17.794Z,98202.44
2023-02-01T17:07:44.075Z,98213.34
2023-02-01T17:10:10.353Z,98212.53
2023-02-01T17:12:36.625Z,98227.00
2023-02-01T17:15:02.895Z,98212.88
2023-02-01T17:17:38.463Z,98212.88
2023-02-01T17:20:05.589Z,98207.41
2023-02-01T17:22:31.895Z,98212.06
2023-02-01T17:24:58.204Z,98208.56
2023-02-01T17:27:24.489Z,98210.47
2023-02-01T17:29:50.741Z,98201.50
2023-02-01T17:32:17.047Z,98198.78
2023-02-01T17:34:43.345Z,98214.34
2023-02-01T17:37:10.938Z,98210.81
2023-02-01T17:39:37.855Z,98219.00
2023-02-01T17:42:04.131Z,98222.03
2023-02-01T17:44:30.389Z,98215.78
2023-02-01T17:46:56.775Z,98215.78
2023-02-01T17:49:23.038Z,98216.13
2023-02-01T17:51:49.294Z,98213.41
2023-02-01T17:54:15.565Z,98215.00
2023-02-01T17:56:41.832Z,98213.41
2023-02-01T17:59:08.110Z,98211.78
2023-02-01T18:01:34.448Z,98214.53
2023-02-01T18:04:00.734Z,98215.66
2023-02-01T18:06:26.992Z,98228.16
2023-02-01T18:08:53.281Z,98237.47
2023-02-01T18:11:19.567Z,98237.47
2023-02-01T18:13:45.845Z,98237.47
2023-02-01T18:16:12.128Z,98236.66
2023-02-01T18:18:39.080Z,98233.94
2023-02-01T18:21:05.363Z,98238.63
2023-02-01T18:23:31.614Z,98232.69
2023-02-01T18:25:57.865Z,98240.88
2023-02-01T18:28:24.129Z,98234.94
2023-02-01T18:30:50.439Z,98234.16
2023-02-01T18:33:16.728Z,98236.41
2023-02-01T18:35:42.988Z,98234.00
2023-02-01T18:38:09.252Z,98246.38
2023-02-01T18:40:35.510Z,98239.31
2023-02-01T18:43:01.772Z,98245.09
2023-02-01T18:45:28.043Z,98252.81
2023-02-01T18:47:54.311Z,98254.28
2023-02-01T18:50:20.579Z,98253.47
2023-02-01T18:52:46.945Z,98241.28
2023-02-01T18:55:13.203Z,98245.16
2023-02-01T18:57:39.463Z,98240.00
2023-02-01T19:00:05.746Z,98248.88
2023-02-01T19:02:32.075Z,98252.72
2023-02-01T19:04:58.328Z,98251.91
2023-02-01T19:07:25.606Z,98250.66
2023-02-01T19:09:51.848Z,98255.28
2023-02-01T19:12:18.125Z,98254.81
2023-02-01T19:14:44.400Z,98251.63
2023-02-01T19:17:10.658Z,98252.75
2023-02-01T19:19:36.917Z,98258.50
2023-02-01T19:22:03.221Z,98261.25
2023-02-01T19:24:29.471Z,98259.97
2023-02-01T19:26:55.783Z,98250.50
2023-02-01T19:29:22.069Z,98252.47
2023-02-01T19:31:48.348Z,98254.69
2023-02-01T19:34:14.610Z,98250.34
2023-02-01T19:36:42.649Z,98250.34
2023-02-01T19:39:09.039Z,98258.06
2023-02-01T19:41:35.297Z,98263.81
2023-02-01T19:44:01.654Z,98266.09
2023-02-01T19:46:27.960Z,98267.22
2023-02-01T19:48:54.238Z,98265.59
2023-02-01T19:51:20.505Z,98271.06
2023-02-01T19:53:46.827Z,98267.53
2023-02-01T19:56:13.218Z,98271.38
2023-02-01T19:58:39.491Z,98274.91
2023-02-01T20:01:04.856Z,98277.63
2023-02-01T20:03:31.125Z,98269.78
2023-02-01T20:05:57.391Z,98270.91
2023-02-01T20:08:23.683Z,98269.31
2023-02-01T20:10:49.954Z,98266.91
2023-02-01T20:13:16.229Z,98272.34
2023-02-01T20:15:42.525Z,98284.06
2023-02-01T20:18:08.784Z,98278.94
2023-02-01T20:20:35.041Z,98280.53
2023-02-01T20:23:01.292Z,98277.03
2023-02-01T20:25:27.555Z,98278.94
2023-02-01T20:27:54.690Z,98272.34
2023-02-01T20:30:21.012Z,98285.19
2023-02-01T20:32:48.777Z,98278.59
2023-02-01T20:35:15.067Z,98278.59
2023-02-01T20:37:41.312Z,98285.97
2023-02-01T20:40:07.589Z,98288.69
2023-02-01T20:42:33.870Z,98291.41
2023-02-01T20:45:00.115Z,98289.84
2023-02-01T20:47:26.368Z,98296.88
2023-02-01T20:49:52.615Z,98301.53
2023-02-01T20:52:18.874Z,98294.50
2023-02-01T20:54:45.153Z,98290.97
2023-02-01T20:57:11.410Z,98291.75
2023-02-01T20:59:37.675Z,98282.78
2023-02-01T21:02:03.974Z,98286.63
2023-02-01T21:04:30.244Z,98283.91
2023-02-01T21:06:56.498Z,98282.78
2023-02-01T21:09:22.772Z,98280.72
2023-02-01T21:11:49.120Z,98285.03
2023-02-01T21:14:15.401Z,98279.91
2023-02-01T21:16:41.816Z,98293.53
2023-02-01T21:19:08.124Z,98279.13
2023-02-01T21:21:34.369Z,98279.13
2023-02-01T21:24:00.659Z,98280.22
2023-02-01T21:26:27.003Z,98290.31
2023-02-01T21:28:53.323Z,98280.22
2023-02-01T21:31:19.633Z,98278.31
2023-02-01T21:33:45.914Z,98284.88
2023-02-01T21:36:12.180Z,98281.69
2023-02-01T21:38:38.437Z,98283.63
2023-02-01T21:41:04.692Z,98291.78
2023-02-01T21:43:30.968Z,98283.94
2023-02-01T21:45:57.228Z,98280.75
2023-02-01T21:48:23.540Z,98281.84
2023-02-01T21:50:49.813Z,98278.31
2023-02-01T21:53:16.060Z,98279.44
2023-02-01T21:55:42.306Z,98293.06
2023-02-01T21:58:08.550Z,98287.97
2023-02-01T22:00:34.806Z,98289.88
2023-02-01T22:03:01.115Z,98291.00
2023-02-01T22:05:27.494Z,98298.38
2023-02-01T22:07:53.731Z,98304.13
2023-02-01T22:10:19.988Z,98301.75
2023-02-01T22:12:46.269Z,98297.91
2023-02-01T22:15:12.513Z,98307.19
2023-02-01T22:17:38.788Z,98306.41
2023-02-01T22:20:05.054Z,98307.50
2023-02-01T22:22:31.327Z,98312.97
2023-02-01T22:24:57.596Z,98317.59
2023-02-01T22:27:30.474Z,98319.53
2023-02-01T22:30:10.099Z,98322.25
2023-02-01T22:32:36.360Z,98328.50
2023-02-01T22:35:02.623Z,98331.22
2023-02-01T22:37:28.894Z,98329.59
2023-02-01T22:39:55.160Z,98335.88
2023-02-01T22:42:21.425Z,98338.59
2023-02-01T22:44:47.675Z,98337.00
2023-02-01T22:47:13.929Z,98335.88
2023-02-01T22:49:40.198Z,98333.13
2023-02-01T22:52:06.465Z,98335.06
2023-02-01T22:54:32.710Z,98325.78
2023-02-01T22:56:58.992Z,98330.41
2023-02-01T22:59:25.237Z,98323.38
2023-02-01T23:01:51.479Z,98328.03
2023-02-01T23:04:17.712Z,98330.75
2023-02-01T23:06:44.000Z,98329.94
2023-02-01T23:09:10.248Z,98325.63
2023-02-01T23:11:36.502Z,98331.88
2023-02-01T23:14:02.752Z,98322.91
2023-02-01T23:16:28.992Z,98322.91
2023-02-01T23:18:55.249Z,98323.69
2023-02-01T23:21:21.522Z,98319.38
2023-02-01T23:23:47.801Z,98316.66
2023-02-01T23:26:14.072Z,98315.84
2023-02-01T23:28:40.334Z,98323.22
2023-02-01T23:31:06.755Z,98317.00
2023-02-01T23:33:33.100Z,98312.31
2023-02-01T23:35:59.376Z,98318.56
2023-02-01T23:38:25.640Z,98317.00
2023-02-01T23:40:51.889Z,98316.19
2023-02-01T23:43:18.141Z,98317.75
2023-02-01T23:45:44.410Z,98323.56
2023-02-01T23:48:10.661Z,98309.13
2023-02-01T23:50:36.996Z,98306.41
2023-02-01T23:53:03.289Z,98299.03
2023-02-01T23:55:29.539Z,98297.44
2023-02-01T23:57:55.808Z,98299.34
